sensor_id;sensor_type;location;lat;lon;timestamp;temperature;humidity
18339;DHT22;9295;44.484;11.240;2023-12-20T00:01:29;4.20;99.90
18339;DHT22;9295;44.484;11.240;2023-12-20T00:03:58;4.20;99.90
18339;DHT22;9295;44.484;11.240;2023-12-20T00:06:27;4.10;99.90
18339;DHT22;9295;44.484;11.240;2023-12-20T00:08:57;4.10;99.90
18339;DHT22;9295;44.484;11.240;2023-12-20T00:11:25;4.00;99.90
18339;DHT22;9295;44.484;11.240;2023-12-20T00:13:54;4.00;99.90
18339;DHT22;9295;44.484;11.240;2023-12-20T00:16:23;3.90;99.90
18339;DHT22;9295;44.484;11.240;2023-12-20T00:18:51;3.90;99.90
18339;DHT22;9295;44.484;11.240;2023-12-20T00:21:20;3.90;99.90
18339;DHT22;9295;44.484;11.240;2023-12-20T00:23:49;3.90;99.90
18339;DHT22;9295;44.484;11.240;2023-12-20T00:26:19;3.90;99.90
18339;DHT22;9295;44.484;11.240;2023-12-20T00:28:47;4.00;99.90
18339;DHT22;9295;44.484;11.240;2023-12-20T00:31:16;4.00;99.90
18339;DHT22;9295;44.484;11.240;2023-12-20T00:33:45;4.00;99.90
18339;DHT22;9295;44.484;11.240;2023-12-20T00:36:14;4.00;99.90
18339;DHT22;9295;44.484;11.240;2023-12-20T00:38:43;4.00;99.90
18339;DHT22;9295;44.484;11.240;2023-12-20T00:41:11;3.90;99.90
18339;DHT22;9295;44.484;11.240;2023-12-20T00:43:41;3.90;99.90
18339;DHT22;9295;44.484;11.240;2023-12-20T00:46:10;3.90;99.90
18339;DHT22;9295;44.484;11.240;2023-12-20T00:48:39;3.80;99.90
18339;DHT22;9295;44.484;11.240;2023-12-20T00:51:09;3.80;99.90
18339;DHT22;9295;44.484;11.240;2023-12-20T00:53:38;3.80;99.90
18339;DHT22;9295;44.484;11.240;2023-12-20T00:56:06;3.80;99.90
18339;DHT22;9295;44.484;11.240;2023-12-20T00:58:35;3.90;99.90
18339;DHT22;9295;44.484;11.240;2023-12-20T01:01:05;3.90;99.90
18339;DHT22;9295;44.484;11.240;2023-12-20T01:03:34;3.90;99.90
18339;DHT22;9295;44.484;11.240;2023-12-20T01:06:03;3.90;99.90
18339;DHT22;9295;44.484;11.240;2023-12-20T01:08:33;3.90;99.90
18339;DHT22;9295;44.484;11.240;2023-12-20T01:11:04;4.00;99.90
18339;DHT22;9295;44.484;11.240;2023-12-20T01:13:33;4.00;99.90
18339;DHT22;9295;44.484;11.240;2023-12-20T01:16:01;3.90;99.90
18339;DHT22;9295;44.484;11.240;2023-12-20T01:18:32;3.90;99.90
18339;DHT22;9295;44.484;11.240;2023-12-20T01:21:02;3.90;99.90
18339;DHT22;9295;44.484;11.240;2023-12-20T01:23:31;3.80;99.90
18339;DHT22;9295;44.484;11.240;2023-12-20T01:26:00;3.80;99.90
18339;DHT22;9295;44.484;11.240;2023-12-20T01:28:29;3.80;99.90
18339;DHT22;9295;44.484;11.240;2023-12-20T01:30:58;3.70;99.90
18339;DHT22;9295;44.484;11.240;2023-12-20T01:33:27;3.70;99.90
18339;DHT22;9295;44.484;11.240;2023-12-20T01:35:56;3.70;99.90
18339;DHT22;9295;44.484;11.240;2023-12-20T01:38:25;3.70;99.90
18339;DHT22;9295;44.484;11.240;2023-12-20T01:40:53;3.60;99.90
18339;DHT22;9295;44.484;11.240;2023-12-20T01:43:22;3.60;99.90
18339;DHT22;9295;44.484;11.240;2023-12-20T01:45:56;3.60;99.90
18339;DHT22;9295;44.484;11.240;2023-12-20T01:48:25;3.60;99.90
18339;DHT22;9295;44.484;11.240;2023-12-20T01:50:54;3.60;99.90
18339;DHT22;9295;44.484;11.240;2023-12-20T01:53:25;3.70;99.90
18339;DHT22;9295;44.484;11.240;2023-12-20T01:55:58;3.70;99.90
18339;DHT22;9295;44.484;11.240;2023-12-20T01:58:26;3.60;99.90
18339;DHT22;9295;44.484;11.240;2023-12-20T02:00:56;3.60;99.90
18339;DHT22;9295;44.484;11.240;2023-12-20T02:03:25;3.60;99.90
18339;DHT22;9295;44.484;11.240;2023-12-20T02:05:54;3.60;99.90
18339;DHT22;9295;44.484;11.240;2023-12-20T02:08:24;3.50;99.90
18339;DHT22;9295;44.484;11.240;2023-12-20T02:10:53;3.50;99.90
18339;DHT22;9295;44.484;11.240;2023-12-20T02:13:22;3.50;99.90
18339;DHT22;9295;44.484;11.240;2023-12-20T02:15:50;3.50;99.90
18339;DHT22;9295;44.484;11.240;2023-12-20T02:18:19;3.50;99.90
18339;DHT22;9295;44.484;11.240;2023-12-20T02:20:48;3.50;99.90
18339;DHT22;9295;44.484;11.240;2023-12-20T02:23:18;3.50;99.90
18339;DHT22;9295;44.484;11.240;2023-12-20T02:25:47;3.50;99.90
18339;DHT22;9295;44.484;11.240;2023-12-20T02:28:15;3.60;99.90
18339;DHT22;9295;44.484;11.240;2023-12-20T02:30:44;3.80;99.90
18339;DHT22;9295;44.484;11.240;2023-12-20T02:33:14;3.80;99.90
18339;DHT22;9295;44.484;11.240;2023-12-20T02:35:43;4.00;99.90
18339;DHT22;9295;44.484;11.240;2023-12-20T02:38:12;4.00;99.90
18339;DHT22;9295;44.484;11.240;2023-12-20T02:40:42;4.00;99.90
18339;DHT22;9295;44.484;11.240;2023-12-20T02:43:16;3.90;99.90
18339;DHT22;9295;44.484;11.240;2023-12-20T02:45:45;3.90;99.90
18339;DHT22;9295;44.484;11.240;2023-12-20T02:48:13;3.80;99.90
18339;DHT22;9295;44.484;11.240;2023-12-20T02:50:42;3.80;99.90
18339;DHT22;9295;44.484;11.240;2023-12-20T02:53:10;3.70;99.90
18339;DHT22;9295;44.484;11.240;2023-12-20T02:55:39;3.70;99.90
18339;DHT22;9295;44.484;11.240;2023-12-20T02:58:09;3.70;99.90
18339;DHT22;9295;44.484;11.240;2023-12-20T03:00:37;3.70;99.90
18339;DHT22;9295;44.484;11.240;2023-12-20T03:03:06;3.70;99.90
18339;DHT22;9295;44.484;11.240;2023-12-20T03:05:35;3.70;99.90
18339;DHT22;9295;44.484;11.240;2023-12-20T03:08:04;3.70;99.90
18339;DHT22;9295;44.484;11.240;2023-12-20T03:10:32;3.60;99.90
18339;DHT22;9295;44.484;11.240;2023-12-20T03:13:01;3.60;99.90
18339;DHT22;9295;44.484;11.240;2023-12-20T03:15:31;3.60;99.90
18339;DHT22;9295;44.484;11.240;2023-12-20T03:17:59;3.60;99.90
18339;DHT22;9295;44.484;11.240;2023-12-20T03:20:28;3.60;99.90
18339;DHT22;9295;44.484;11.240;2023-12-20T03:22:59;3.50;99.90
18339;DHT22;9295;44.484;11.240;2023-12-20T03:25:27;3.50;99.90
18339;DHT22;9295;44.484;11.240;2023-12-20T03:27:56;3.50;99.90
18339;DHT22;9295;44.484;11.240;2023-12-20T03:30:24;3.50;99.90
18339;DHT22;9295;44.484;11.240;2023-12-20T03:32:54;3.40;99.90
18339;DHT22;9295;44.484;11.240;2023-12-20T03:35:23;3.40;99.90
18339;DHT22;9295;44.484;11.240;2023-12-20T03:37:52;3.50;99.90
18339;DHT22;9295;44.484;11.240;2023-12-20T03:40:20;3.50;99.90
18339;DHT22;9295;44.484;11.240;2023-12-20T03:42:49;3.50;99.90
18339;DHT22;9295;44.484;11.240;2023-12-20T03:45:18;3.50;99.90
18339;DHT22;9295;44.484;11.240;2023-12-20T03:47:47;3.50;99.90
18339;DHT22;9295;44.484;11.240;2023-12-20T03:50:17;3.50;99.90
18339;DHT22;9295;44.484;11.240;2023-12-20T03:52:46;3.50;99.90
18339;DHT22;9295;44.484;11.240;2023-12-20T03:55:15;3.50;99.90
18339;DHT22;9295;44.484;11.240;2023-12-20T03:57:44;3.50;99.90
18339;DHT22;9295;44.484;11.240;2023-12-20T04:00:13;3.40;99.90
18339;DHT22;9295;44.484;11.240;2023-12-20T04:02:42;3.40;99.90
18339;DHT22;9295;44.484;11.240;2023-12-20T04:05:11;3.30;99.90
18339;DHT22;9295;44.484;11.240;2023-12-20T04:07:41;3.30;99.90
18339;DHT22;9295;44.484;11.240;2023-12-20T04:10:11;3.30;99.90
18339;DHT22;9295;44.484;11.240;2023-12-20T04:12:40;3.30;99.90
18339;DHT22;9295;44.484;11.240;2023-12-20T04:15:09;3.20;99.90
18339;DHT22;9295;44.484;11.240;2023-12-20T04:17:39;3.20;99.90
18339;DHT22;9295;44.484;11.240;2023-12-20T04:20:08;3.20;99.90
18339;DHT22;9295;44.484;11.240;2023-12-20T04:22:37;3.20;99.90
18339;DHT22;9295;44.484;11.240;2023-12-20T04:25:08;3.20;99.90
18339;DHT22;9295;44.484;11.240;2023-12-20T04:27:37;3.20;99.90
18339;DHT22;9295;44.484;11.240;2023-12-20T04:30:07;3.20;99.90
18339;DHT22;9295;44.484;11.240;2023-12-20T04:32:36;3.20;99.90
18339;DHT22;9295;44.484;11.240;2023-12-20T04:35:05;3.20;99.90
18339;DHT22;9295;44.484;11.240;2023-12-20T04:37:34;3.10;99.90
18339;DHT22;9295;44.484;11.240;2023-12-20T04:40:03;3.10;99.90
18339;DHT22;9295;44.484;11.240;2023-12-20T04:42:35;3.20;99.90
18339;DHT22;9295;44.484;11.240;2023-12-20T04:45:04;3.10;99.90
18339;DHT22;9295;44.484;11.240;2023-12-20T04:47:33;3.20;99.90
18339;DHT22;9295;44.484;11.240;2023-12-20T04:50:02;3.20;99.90
18339;DHT22;9295;44.484;11.240;2023-12-20T04:52:31;3.30;99.90
18339;DHT22;9295;44.484;11.240;2023-12-20T04:55:00;3.30;99.90
18339;DHT22;9295;44.484;11.240;2023-12-20T04:57:28;3.30;99.90
18339;DHT22;9295;44.484;11.240;2023-12-20T04:59:58;3.30;99.90
18339;DHT22;9295;44.484;11.240;2023-12-20T05:02:27;3.30;99.90
18339;DHT22;9295;44.484;11.240;2023-12-20T05:04:56;3.20;99.90
18339;DHT22;9295;44.484;11.240;2023-12-20T05:07:24;3.20;99.90
18339;DHT22;9295;44.484;11.240;2023-12-20T05:09:53;3.10;99.90
18339;DHT22;9295;44.484;11.240;2023-12-20T05:12:22;3.10;99.90
18339;DHT22;9295;44.484;11.240;2023-12-20T05:14:52;3.10;99.90
18339;DHT22;9295;44.484;11.240;2023-12-20T05:17:22;3.10;99.90
18339;DHT22;9295;44.484;11.240;2023-12-20T05:19:51;3.20;99.90
18339;DHT22;9295;44.484;11.240;2023-12-20T05:22:19;3.10;99.90
18339;DHT22;9295;44.484;11.240;2023-12-20T05:24:49;3.20;99.90
18339;DHT22;9295;44.484;11.240;2023-12-20T05:27:17;3.10;99.90
18339;DHT22;9295;44.484;11.240;2023-12-20T05:29:46;3.10;99.90
18339;DHT22;9295;44.484;11.240;2023-12-20T05:32:14;3.10;99.90
18339;DHT22;9295;44.484;11.240;2023-12-20T05:34:44;3.10;99.90
18339;DHT22;9295;44.484;11.240;2023-12-20T05:37:13;3.10;99.90
18339;DHT22;9295;44.484;11.240;2023-12-20T05:39:42;3.20;99.90
18339;DHT22;9295;44.484;11.240;2023-12-20T05:42:10;3.20;99.90
18339;DHT22;9295;44.484;11.240;2023-12-20T05:44:39;3.20;99.90
18339;DHT22;9295;44.484;11.240;2023-12-20T05:47:07;3.20;99.90
18339;DHT22;9295;44.484;11.240;2023-12-20T05:49:36;3.30;99.90
18339;DHT22;9295;44.484;11.240;2023-12-20T05:52:06;3.30;99.90
18339;DHT22;9295;44.484;11.240;2023-12-20T05:54:34;3.30;99.90
18339;DHT22;9295;44.484;11.240;2023-12-20T05:57:04;3.20;99.90
18339;DHT22;9295;44.484;11.240;2023-12-20T05:59:32;3.20;99.90
18339;DHT22;9295;44.484;11.240;2023-12-20T06:02:02;3.20;99.90
18339;DHT22;9295;44.484;11.240;2023-12-20T06:04:31;3.30;99.90
18339;DHT22;9295;44.484;11.240;2023-12-20T06:07:00;3.30;99.90
18339;DHT22;9295;44.484;11.240;2023-12-20T06:09:30;3.30;99.90
18339;DHT22;9295;44.484;11.240;2023-12-20T06:11:59;3.40;99.90
18339;DHT22;9295;44.484;11.240;2023-12-20T06:14:27;3.40;99.90
18339;DHT22;9295;44.484;11.240;2023-12-20T06:16:57;3.40;99.90
18339;DHT22;9295;44.484;11.240;2023-12-20T06:19:26;3.40;99.90
18339;DHT22;9295;44.484;11.240;2023-12-20T06:21:55;3.40;99.90
18339;DHT22;9295;44.484;11.240;2023-12-20T06:24:24;3.40;99.90
18339;DHT22;9295;44.484;11.240;2023-12-20T06:26:56;3.40;99.90
18339;DHT22;9295;44.484;11.240;2023-12-20T06:29:25;3.40;99.90
18339;DHT22;9295;44.484;11.240;2023-12-20T06:31:53;3.40;99.90
18339;DHT22;9295;44.484;11.240;2023-12-20T06:34:22;3.40;99.90
18339;DHT22;9295;44.484;11.240;2023-12-20T06:36:51;3.40;99.90
18339;DHT22;9295;44.484;11.240;2023-12-20T06:39:19;3.50;99.90
18339;DHT22;9295;44.484;11.240;2023-12-20T06:41:48;3.50;99.90
18339;DHT22;9295;44.484;11.240;2023-12-20T06:44:18;3.50;99.90
18339;DHT22;9295;44.484;11.240;2023-12-20T06:46:46;3.50;99.90
18339;DHT22;9295;44.484;11.240;2023-12-20T06:49:14;3.60;99.90
18339;DHT22;9295;44.484;11.240;2023-12-20T06:51:43;3.60;99.90
18339;DHT22;9295;44.484;11.240;2023-12-20T06:54:11;3.70;99.90
18339;DHT22;9295;44.484;11.240;2023-12-20T06:56:40;3.80;99.90
18339;DHT22;9295;44.484;11.240;2023-12-20T06:59:09;3.90;99.90
18339;DHT22;9295;44.484;11.240;2023-12-20T07:01:39;4.00;99.90
18339;DHT22;9295;44.484;11.240;2023-12-20T07:04:08;4.10;99.90
18339;DHT22;9295;44.484;11.240;2023-12-20T07:06:38;4.20;99.90
18339;DHT22;9295;44.484;11.240;2023-12-20T07:09:07;4.20;99.90
18339;DHT22;9295;44.484;11.240;2023-12-20T07:11:37;4.20;99.90
18339;DHT22;9295;44.484;11.240;2023-12-20T07:14:06;4.30;99.90
18339;DHT22;9295;44.484;11.240;2023-12-20T07:16:34;4.40;99.90
18339;DHT22;9295;44.484;11.240;2023-12-20T07:19:04;4.50;99.90
18339;DHT22;9295;44.484;11.240;2023-12-20T07:21:33;4.50;99.90
18339;DHT22;9295;44.484;11.240;2023-12-20T07:24:02;4.60;99.90
18339;DHT22;9295;44.484;11.240;2023-12-20T07:26:31;4.70;99.90
18339;DHT22;9295;44.484;11.240;2023-12-20T07:28:59;5.00;99.90
18339;DHT22;9295;44.484;11.240;2023-12-20T07:31:28;5.40;99.90
18339;DHT22;9295;44.484;11.240;2023-12-20T07:33:57;6.40;99.90
18339;DHT22;9295;44.484;11.240;2023-12-20T07:36:27;7.60;99.90
18339;DHT22;9295;44.484;11.240;2023-12-20T07:38:55;8.10;99.90
18339;DHT22;9295;44.484;11.240;2023-12-20T07:41:24;8.80;99.90
18339;DHT22;9295;44.484;11.240;2023-12-20T07:43:52;9.30;99.90
18339;DHT22;9295;44.484;11.240;2023-12-20T07:46:21;9.40;99.90
18339;DHT22;9295;44.484;11.240;2023-12-20T07:48:51;8.70;99.90
18339;DHT22;9295;44.484;11.240;2023-12-20T07:51:19;8.60;99.90
18339;DHT22;9295;44.484;11.240;2023-12-20T07:53:49;8.60;99.90
18339;DHT22;9295;44.484;11.240;2023-12-20T07:56:19;8.40;99.90
18339;DHT22;9295;44.484;11.240;2023-12-20T07:58:48;8.10;99.90
18339;DHT22;9295;44.484;11.240;2023-12-20T08:01:20;7.80;99.90
18339;DHT22;9295;44.484;11.240;2023-12-20T08:03:49;7.60;99.90
18339;DHT22;9295;44.484;11.240;2023-12-20T08:06:19;7.20;99.90
18339;DHT22;9295;44.484;11.240;2023-12-20T08:08:49;7.10;99.90
18339;DHT22;9295;44.484;11.240;2023-12-20T08:11:28;6.90;99.90
18339;DHT22;9295;44.484;11.240;2023-12-20T08:13:57;6.80;99.90
18339;DHT22;9295;44.484;11.240;2023-12-20T08:16:26;6.70;99.90
18339;DHT22;9295;44.484;11.240;2023-12-20T08:18:54;6.60;99.90
18339;DHT22;9295;44.484;11.240;2023-12-20T08:21:23;6.60;99.90
18339;DHT22;9295;44.484;11.240;2023-12-20T08:23:53;6.60;99.90
18339;DHT22;9295;44.484;11.240;2023-12-20T08:26:22;6.60;99.90
18339;DHT22;9295;44.484;11.240;2023-12-20T08:28:51;6.60;99.90
18339;DHT22;9295;44.484;11.240;2023-12-20T08:31:20;6.60;99.90
18339;DHT22;9295;44.484;11.240;2023-12-20T08:33:49;6.50;99.90
18339;DHT22;9295;44.484;11.240;2023-12-20T08:36:19;6.50;99.90
18339;DHT22;9295;44.484;11.240;2023-12-20T08:38:48;6.50;99.90
18339;DHT22;9295;44.484;11.240;2023-12-20T08:41:19;6.40;99.90
18339;DHT22;9295;44.484;11.240;2023-12-20T08:43:47;6.30;99.90
18339;DHT22;9295;44.484;11.240;2023-12-20T08:46:16;6.40;99.90
18339;DHT22;9295;44.484;11.240;2023-12-20T08:48:45;6.40;99.90
18339;DHT22;9295;44.484;11.240;2023-12-20T08:51:14;6.40;99.90
18339;DHT22;9295;44.484;11.240;2023-12-20T08:53:43;6.50;99.90
18339;DHT22;9295;44.484;11.240;2023-12-20T08:56:12;6.50;99.90
18339;DHT22;9295;44.484;11.240;2023-12-20T08:58:43;6.60;99.90
18339;DHT22;9295;44.484;11.240;2023-12-20T09:01:11;6.60;99.90
18339;DHT22;9295;44.484;11.240;2023-12-20T09:03:40;6.80;99.90
18339;DHT22;9295;44.484;11.240;2023-12-20T09:06:09;7.00;99.90
18339;DHT22;9295;44.484;11.240;2023-12-20T09:08:37;7.10;99.90
18339;DHT22;9295;44.484;11.240;2023-12-20T09:11:06;7.30;99.90
18339;DHT22;9295;44.484;11.240;2023-12-20T09:13:35;7.40;99.90
18339;DHT22;9295;44.484;11.240;2023-12-20T09:16:06;7.50;99.90
18339;DHT22;9295;44.484;11.240;2023-12-20T09:18:34;7.60;99.90
18339;DHT22;9295;44.484;11.240;2023-12-20T09:21:03;7.70;99.90
18339;DHT22;9295;44.484;11.240;2023-12-20T09:23:32;7.80;99.90
18339;DHT22;9295;44.484;11.240;2023-12-20T09:26:00;7.90;99.90
18339;DHT22;9295;44.484;11.240;2023-12-20T09:28:29;8.10;99.90
18339;DHT22;9295;44.484;11.240;2023-12-20T09:30:59;8.40;99.90
18339;DHT22;9295;44.484;11.240;2023-12-20T09:33:30;8.50;99.90
18339;DHT22;9295;44.484;11.240;2023-12-20T09:35:59;8.60;99.90
18339;DHT22;9295;44.484;11.240;2023-12-20T09:38:28;8.60;99.90
18339;DHT22;9295;44.484;11.240;2023-12-20T09:40:56;8.60;99.90
18339;DHT22;9295;44.484;11.240;2023-12-20T09:43:25;8.60;99.90
18339;DHT22;9295;44.484;11.240;2023-12-20T09:46:00;8.60;99.90
18339;DHT22;9295;44.484;11.240;2023-12-20T09:48:33;8.50;99.90
18339;DHT22;9295;44.484;11.240;2023-12-20T09:51:02;8.60;99.90
18339;DHT22;9295;44.484;11.240;2023-12-20T09:53:32;8.70;99.90
18339;DHT22;9295;44.484;11.240;2023-12-20T09:56:03;8.70;99.90
18339;DHT22;9295;44.484;11.240;2023-12-20T09:58:32;8.70;99.90
18339;DHT22;9295;44.484;11.240;2023-12-20T10:01:01;8.80;99.90
18339;DHT22;9295;44.484;11.240;2023-12-20T10:03:32;8.90;99.90
18339;DHT22;9295;44.484;11.240;2023-12-20T10:06:01;9.10;99.90
18339;DHT22;9295;44.484;11.240;2023-12-20T10:08:29;9.20;99.90
18339;DHT22;9295;44.484;11.240;2023-12-20T10:11:00;9.10;99.90
18339;DHT22;9295;44.484;11.240;2023-12-20T10:13:30;9.20;99.90
18339;DHT22;9295;44.484;11.240;2023-12-20T10:15:59;9.10;99.90
18339;DHT22;9295;44.484;11.240;2023-12-20T10:18:29;9.20;99.90
18339;DHT22;9295;44.484;11.240;2023-12-20T10:21:07;9.10;99.90
18339;DHT22;9295;44.484;11.240;2023-12-20T10:23:37;9.20;99.90
18339;DHT22;9295;44.484;11.240;2023-12-20T10:26:08;9.10;99.90
18339;DHT22;9295;44.484;11.240;2023-12-20T10:28:37;9.10;99.90
18339;DHT22;9295;44.484;11.240;2023-12-20T10:31:06;9.20;99.90
18339;DHT22;9295;44.484;11.240;2023-12-20T10:33:35;9.30;99.90
18339;DHT22;9295;44.484;11.240;2023-12-20T10:36:04;9.40;99.90
18339;DHT22;9295;44.484;11.240;2023-12-20T10:38:36;9.40;99.90
18339;DHT22;9295;44.484;11.240;2023-12-20T10:41:09;9.40;99.90
18339;DHT22;9295;44.484;11.240;2023-12-20T10:43:39;9.40;99.90
18339;DHT22;9295;44.484;11.240;2023-12-20T10:46:08;9.40;99.90
18339;DHT22;9295;44.484;11.240;2023-12-20T10:48:39;9.40;99.90
18339;DHT22;9295;44.484;11.240;2023-12-20T10:51:08;9.50;99.90
18339;DHT22;9295;44.484;11.240;2023-12-20T10:53:39;9.50;99.90
18339;DHT22;9295;44.484;11.240;2023-12-20T10:56:11;9.60;99.90
18339;DHT22;9295;44.484;11.240;2023-12-20T10:58:42;9.70;99.90
18339;DHT22;9295;44.484;11.240;2023-12-20T11:01:12;9.80;99.90
18339;DHT22;9295;44.484;11.240;2023-12-20T11:03:48;9.80;99.90
18339;DHT22;9295;44.484;11.240;2023-12-20T11:06:28;9.70;99.90
18339;DHT22;9295;44.484;11.240;2023-12-20T11:09:08;9.70;99.90
18339;DHT22;9295;44.484;11.240;2023-12-20T11:11:52;9.60;99.90
18339;DHT22;9295;44.484;11.240;2023-12-20T11:14:27;9.60;99.90
18339;DHT22;9295;44.484;11.240;2023-12-20T11:17:07;9.60;99.90
18339;DHT22;9295;44.484;11.240;2023-12-20T11:19:38;9.60;99.90
18339;DHT22;9295;44.484;11.240;2023-12-20T11:22:06;9.60;99.90
18339;DHT22;9295;44.484;11.240;2023-12-20T11:24:39;9.60;99.90
18339;DHT22;9295;44.484;11.240;2023-12-20T11:27:12;9.70;99.90
18339;DHT22;9295;44.484;11.240;2023-12-20T11:29:41;9.80;99.90
18339;DHT22;9295;44.484;11.240;2023-12-20T11:32:29;9.80;99.90
18339;DHT22;9295;44.484;11.240;2023-12-20T11:35:00;9.90;99.90
18339;DHT22;9295;44.484;11.240;2023-12-20T11:37:30;10.00;99.90
18339;DHT22;9295;44.484;11.240;2023-12-20T11:40:05;10.20;99.90
18339;DHT22;9295;44.484;11.240;2023-12-20T11:42:38;10.30;99.90
18339;DHT22;9295;44.484;11.240;2023-12-20T11:45:09;10.40;99.90
18339;DHT22;9295;44.484;11.240;2023-12-20T11:47:38;10.30;99.90
18339;DHT22;9295;44.484;11.240;2023-12-20T11:50:07;10.30;99.90
18339;DHT22;9295;44.484;11.240;2023-12-20T11:52:36;10.30;99.90
18339;DHT22;9295;44.484;11.240;2023-12-20T11:55:06;10.30;99.90
18339;DHT22;9295;44.484;11.240;2023-12-20T11:57:36;10.30;99.90
18339;DHT22;9295;44.484;11.240;2023-12-20T12:00:06;10.20;99.90
18339;DHT22;9295;44.484;11.240;2023-12-20T12:02:38;10.20;99.90
18339;DHT22;9295;44.484;11.240;2023-12-20T12:05:07;10.20;99.90
18339;DHT22;9295;44.484;11.240;2023-12-20T12:07:36;10.10;99.90
18339;DHT22;9295;44.484;11.240;2023-12-20T12:10:07;10.20;99.90
18339;DHT22;9295;44.484;11.240;2023-12-20T12:12:36;10.20;99.90
18339;DHT22;9295;44.484;11.240;2023-12-20T12:15:06;10.10;99.90
18339;DHT22;9295;44.484;11.240;2023-12-20T12:17:35;10.10;99.90
18339;DHT22;9295;44.484;11.240;2023-12-20T12:20:06;9.90;99.90
18339;DHT22;9295;44.484;11.240;2023-12-20T12:22:37;9.50;99.90
18339;DHT22;9295;44.484;11.240;2023-12-20T12:25:13;9.20;99.90
18339;DHT22;9295;44.484;11.240;2023-12-20T12:27:43;9.30;99.90
18339;DHT22;9295;44.484;11.240;2023-12-20T12:30:12;9.50;99.90
18339;DHT22;9295;44.484;11.240;2023-12-20T12:32:44;9.80;99.90
18339;DHT22;9295;44.484;11.240;2023-12-20T12:35:14;9.90;99.90
18339;DHT22;9295;44.484;11.240;2023-12-20T12:37:43;9.90;99.90
18339;DHT22;9295;44.484;11.240;2023-12-20T12:40:14;9.90;99.90
18339;DHT22;9295;44.484;11.240;2023-12-20T12:42:45;9.90;99.90
18339;DHT22;9295;44.484;11.240;2023-12-20T12:45:14;9.80;99.90
18339;DHT22;9295;44.484;11.240;2023-12-20T12:47:43;9.80;99.90
18339;DHT22;9295;44.484;11.240;2023-12-20T12:50:13;9.90;99.90
18339;DHT22;9295;44.484;11.240;2023-12-20T12:52:42;10.00;99.90
18339;DHT22;9295;44.484;11.240;2023-12-20T12:55:12;10.00;99.90
18339;DHT22;9295;44.484;11.240;2023-12-20T12:57:41;10.00;99.90
18339;DHT22;9295;44.484;11.240;2023-12-20T13:00:12;9.90;99.90
18339;DHT22;9295;44.484;11.240;2023-12-20T13:02:41;9.80;99.90
18339;DHT22;9295;44.484;11.240;2023-12-20T13:05:10;9.80;99.90
18339;DHT22;9295;44.484;11.240;2023-12-20T13:07:39;9.90;99.90
18339;DHT22;9295;44.484;11.240;2023-12-20T13:10:08;10.00;99.90
18339;DHT22;9295;44.484;11.240;2023-12-20T13:12:39;10.10;99.90
18339;DHT22;9295;44.484;11.240;2023-12-20T13:15:08;10.10;99.90
18339;DHT22;9295;44.484;11.240;2023-12-20T13:17:37;10.10;99.90
18339;DHT22;9295;44.484;11.240;2023-12-20T13:20:08;10.10;99.90
18339;DHT22;9295;44.484;11.240;2023-12-20T13:22:36;10.00;99.90
18339;DHT22;9295;44.484;11.240;2023-12-20T13:25:05;9.80;99.90
18339;DHT22;9295;44.484;11.240;2023-12-20T13:27:35;9.60;99.90
18339;DHT22;9295;44.484;11.240;2023-12-20T13:30:07;9.60;99.90
18339;DHT22;9295;44.484;11.240;2023-12-20T13:32:35;9.60;99.90
18339;DHT22;9295;44.484;11.240;2023-12-20T13:35:05;9.50;99.90
18339;DHT22;9295;44.484;11.240;2023-12-20T13:37:34;9.50;99.90
18339;DHT22;9295;44.484;11.240;2023-12-20T13:40:03;9.60;99.90
18339;DHT22;9295;44.484;11.240;2023-12-20T13:42:33;9.50;99.90
18339;DHT22;9295;44.484;11.240;2023-12-20T13:45:02;9.60;99.90
18339;DHT22;9295;44.484;11.240;2023-12-20T13:47:33;9.50;99.90
18339;DHT22;9295;44.484;11.240;2023-12-20T13:50:02;9.50;99.90
18339;DHT22;9295;44.484;11.240;2023-12-20T13:52:31;9.40;99.90
18339;DHT22;9295;44.484;11.240;2023-12-20T13:55:04;9.30;99.90
18339;DHT22;9295;44.484;11.240;2023-12-20T13:57:35;9.20;99.90
18339;DHT22;9295;44.484;11.240;2023-12-20T14:00:10;9.10;99.90
18339;DHT22;9295;44.484;11.240;2023-12-20T14:02:43;9.00;99.90
18339;DHT22;9295;44.484;11.240;2023-12-20T14:05:13;9.00;99.90
18339;DHT22;9295;44.484;11.240;2023-12-20T14:07:45;8.90;99.90
18339;DHT22;9295;44.484;11.240;2023-12-20T14:10:16;8.90;99.90
18339;DHT22;9295;44.484;11.240;2023-12-20T14:12:45;9.00;99.90
18339;DHT22;9295;44.484;11.240;2023-12-20T14:15:14;9.00;99.90
18339;DHT22;9295;44.484;11.240;2023-12-20T14:17:43;9.00;99.90
18339;DHT22;9295;44.484;11.240;2023-12-20T14:20:13;8.90;99.90
18339;DHT22;9295;44.484;11.240;2023-12-20T14:22:41;8.80;99.90
18339;DHT22;9295;44.484;11.240;2023-12-20T14:25:12;8.60;99.90
18339;DHT22;9295;44.484;11.240;2023-12-20T14:27:41;8.40;99.90
18339;DHT22;9295;44.484;11.240;2023-12-20T14:30:13;8.50;99.90
18339;DHT22;9295;44.484;11.240;2023-12-20T14:32:44;8.70;99.90
18339;DHT22;9295;44.484;11.240;2023-12-20T14:35:12;8.80;99.90
18339;DHT22;9295;44.484;11.240;2023-12-20T14:37:41;8.90;99.90
18339;DHT22;9295;44.484;11.240;2023-12-20T14:40:11;8.90;99.90
18339;DHT22;9295;44.484;11.240;2023-12-20T14:42:44;8.90;99.90
18339;DHT22;9295;44.484;11.240;2023-12-20T14:45:15;8.70;99.90
18339;DHT22;9295;44.484;11.240;2023-12-20T14:47:45;8.50;99.90
18339;DHT22;9295;44.484;11.240;2023-12-20T14:50:16;8.50;99.90
18339;DHT22;9295;44.484;11.240;2023-12-20T14:52:46;8.50;99.90
18339;DHT22;9295;44.484;11.240;2023-12-20T14:55:15;8.50;99.90
18339;DHT22;9295;44.484;11.240;2023-12-20T14:57:44;8.60;99.90
18339;DHT22;9295;44.484;11.240;2023-12-20T15:00:14;8.60;99.90
18339;DHT22;9295;44.484;11.240;2023-12-20T15:02:46;8.60;99.90
18339;DHT22;9295;44.484;11.240;2023-12-20T15:05:15;8.60;99.90
18339;DHT22;9295;44.484;11.240;2023-12-20T15:07:45;8.60;99.90
18339;DHT22;9295;44.484;11.240;2023-12-20T15:10:14;8.70;99.90
18339;DHT22;9295;44.484;11.240;2023-12-20T15:12:44;8.60;99.90
18339;DHT22;9295;44.484;11.240;2023-12-20T15:15:13;8.60;99.90
18339;DHT22;9295;44.484;11.240;2023-12-20T15:17:42;8.60;99.90
18339;DHT22;9295;44.484;11.240;2023-12-20T15:20:12;8.60;99.90
18339;DHT22;9295;44.484;11.240;2023-12-20T15:22:41;8.50;99.90
18339;DHT22;9295;44.484;11.240;2023-12-20T15:25:13;8.50;99.90
18339;DHT22;9295;44.484;11.240;2023-12-20T15:27:47;8.40;99.90
18339;DHT22;9295;44.484;11.240;2023-12-20T15:30:20;8.40;99.90
18339;DHT22;9295;44.484;11.240;2023-12-20T15:32:51;8.40;99.90
18339;DHT22;9295;44.484;11.240;2023-12-20T15:35:21;8.30;99.90
18339;DHT22;9295;44.484;11.240;2023-12-20T15:37:50;8.30;99.90
18339;DHT22;9295;44.484;11.240;2023-12-20T15:40:19;8.20;99.90
18339;DHT22;9295;44.484;11.240;2023-12-20T15:42:48;8.10;99.90
18339;DHT22;9295;44.484;11.240;2023-12-20T15:45:17;8.00;99.90
18339;DHT22;9295;44.484;11.240;2023-12-20T15:47:46;8.00;99.90
18339;DHT22;9295;44.484;11.240;2023-12-20T15:50:15;7.90;99.90
18339;DHT22;9295;44.484;11.240;2023-12-20T15:52:45;7.80;99.90
18339;DHT22;9295;44.484;11.240;2023-12-20T15:55:14;7.50;99.90
18339;DHT22;9295;44.484;11.240;2023-12-20T15:57:43;7.30;99.90
18339;DHT22;9295;44.484;11.240;2023-12-20T16:00:21;7.20;99.90